sensor_id;sensor_type;location;lat;lon;timestamp;P1;durP1;ratioP1;P2;durP2;ratioP2
57389;SDS011;43217;52.694;6.214;2022-10-16T00:00:53;4.38;;;2.13;;
57389;SDS011;43217;52.694;6.214;2022-10-16T00:03:19;5.78;;;2.40;;
57389;SDS011;43217;52.694;6.214;2022-10-16T00:05:44;4.18;;;1.92;;
57389;SDS011;43217;52.694;6.214;2022-10-16T00:08:24;3.80;;;2.25;;
57389;SDS011;43217;52.694;6.214;2022-10-16T00:10:50;8.52;;;2.30;;
57389;SDS011;43217;52.694;6.214;2022-10-16T00:13:16;4.45;;;2.10;;
57389;SDS011;43217;52.694;6.214;2022-10-16T00:15:42;6.40;;;2.33;;
57389;SDS011;43217;52.694;6.214;2022-10-16T00:18:09;5.20;;;2.15;;
57389;SDS011;43217;52.694;6.214;2022-10-16T00:20:35;5.05;;;2.72;;
57389;SDS011;43217;52.694;6.214;2022-10-16T00:23:02;6.07;;;1.90;;
57389;SDS011;43217;52.694;6.214;2022-10-16T00:25:28;4.73;;;1.87;;
57389;SDS011;43217;52.694;6.214;2022-10-16T00:27:54;5.20;;;2.10;;
57389;SDS011;43217;52.694;6.214;2022-10-16T00:30:19;4.03;;;1.75;;
57389;SDS011;43217;52.694;6.214;2022-10-16T00:32:45;5.57;;;2.47;;
57389;SDS011;43217;52.694;6.214;2022-10-16T00:35:14;4.75;;;2.03;;
57389;SDS011;43217;52.694;6.214;2022-10-16T00:37:39;4.45;;;2.25;;
57389;SDS011;43217;52.694;6.214;2022-10-16T00:40:05;4.80;;;2.05;;
57389;SDS011;43217;52.694;6.214;2022-10-16T00:42:31;5.15;;;2.30;;
57389;SDS011;43217;52.694;6.214;2022-10-16T00:44:57;5.22;;;2.20;;
57389;SDS011;43217;52.694;6.214;2022-10-16T00:49:56;4.45;;;2.75;;
57389;SDS011;43217;52.694;6.214;2022-10-16T00:52:44;5.78;;;2.50;;
57389;SDS011;43217;52.694;6.214;2022-10-16T00:55:17;4.05;;;2.28;;
57389;SDS011;43217;52.694;6.214;2022-10-16T00:57:43;4.78;;;2.65;;
57389;SDS011;43217;52.694;6.214;2022-10-16T01:00:13;4.47;;;2.10;;
57389;SDS011;43217;52.694;6.214;2022-10-16T01:02:42;3.88;;;2.17;;
57389;SDS011;43217;52.694;6.214;2022-10-16T01:05:07;5.93;;;2.13;;
57389;SDS011;43217;52.694;6.214;2022-10-16T01:13:13;4.75;;;2.28;;
57389;SDS011;43217;52.694;6.214;2022-10-16T01:15:56;3.35;;;2.10;;
57389;SDS011;43217;52.694;6.214;2022-10-16T01:21:22;5.10;;;2.45;;
57389;SDS011;43217;52.694;6.214;2022-10-16T01:24:00;3.55;;;2.25;;
57389;SDS011;43217;52.694;6.214;2022-10-16T01:32:42;5.22;;;2.38;;
57389;SDS011;43217;52.694;6.214;2022-10-16T01:35:25;4.82;;;2.83;;
57389;SDS011;43217;52.694;6.214;2022-10-16T01:40:50;3.70;;;2.40;;
57389;SDS011;43217;52.694;6.214;2022-10-16T01:43:26;4.70;;;2.35;;
57389;SDS011;43217;52.694;6.214;2022-10-16T01:45:56;5.07;;;2.90;;
57389;SDS011;43217;52.694;6.214;2022-10-16T01:53:36;5.38;;;3.13;;
57389;SDS011;43217;52.694;6.214;2022-10-16T01:56:04;5.68;;;2.45;;
57389;SDS011;43217;52.694;6.214;2022-10-16T01:58:34;4.90;;;2.65;;
57389;SDS011;43217;52.694;6.214;2022-10-16T02:01:04;2.90;;;2.38;;
57389;SDS011;43217;52.694;6.214;2022-10-16T02:03:34;2.85;;;2.38;;
57389;SDS011;43217;52.694;6.214;2022-10-16T02:06:01;4.57;;;2.65;;
57389;SDS011;43217;52.694;6.214;2022-10-16T02:08:27;3.90;;;2.08;;
57389;SDS011;43217;52.694;6.214;2022-10-16T02:10:55;3.15;;;2.45;;
57389;SDS011;43217;52.694;6.214;2022-10-16T02:13:22;5.53;;;2.53;;
57389;SDS011;43217;52.694;6.214;2022-10-16T02:15:57;3.42;;;2.45;;
57389;SDS011;43217;52.694;6.214;2022-10-16T02:18:23;2.72;;;2.33;;
57389;SDS011;43217;52.694;6.214;2022-10-16T02:26:35;3.58;;;2.25;;
57389;SDS011;43217;52.694;6.214;2022-10-16T02:29:08;3.00;;;2.35;;
57389;SDS011;43217;52.694;6.214;2022-10-16T02:31:41;4.75;;;2.40;;
57389;SDS011;43217;52.694;6.214;2022-10-16T02:34:12;4.45;;;2.20;;
57389;SDS011;43217;52.694;6.214;2022-10-16T02:36:39;3.67;;;2.53;;
57389;SDS011;43217;52.694;6.214;2022-10-16T02:39:06;4.82;;;2.45;;
57389;SDS011;43217;52.694;6.214;2022-10-16T02:41:34;4.15;;;2.50;;
57389;SDS011;43217;52.694;6.214;2022-10-16T02:44:00;3.25;;;2.20;;
57389;SDS011;43217;52.694;6.214;2022-10-16T02:46:26;4.72;;;2.35;;
57389;SDS011;43217;52.694;6.214;2022-10-16T02:48:51;5.15;;;2.55;;
57389;SDS011;43217;52.694;6.214;2022-10-16T02:51:33;3.85;;;1.95;;
57389;SDS011;43217;52.694;6.214;2022-10-16T02:53:58;4.32;;;2.08;;
57389;SDS011;43217;52.694;6.214;2022-10-16T02:56:42;5.05;;;2.70;;
57389;SDS011;43217;52.694;6.214;2022-10-16T02:59:08;4.82;;;2.30;;
57389;SDS011;43217;52.694;6.214;2022-10-16T03:01:33;2.80;;;2.22;;
57389;SDS011;43217;52.694;6.214;2022-10-16T03:03:59;5.57;;;2.47;;
57389;SDS011;43217;52.694;6.214;2022-10-16T03:06:24;3.35;;;2.30;;
57389;SDS011;43217;52.694;6.214;2022-10-16T03:08:50;5.55;;;2.30;;
57389;SDS011;43217;52.694;6.214;2022-10-16T03:11:15;4.18;;;2.20;;
57389;SDS011;43217;52.694;6.214;2022-10-16T03:13:41;5.13;;;2.65;;
57389;SDS011;43217;52.694;6.214;2022-10-16T03:16:07;5.40;;;2.58;;
57389;SDS011;43217;52.694;6.214;2022-10-16T03:18:32;3.28;;;2.38;;
57389;SDS011;43217;52.694;6.214;2022-10-16T03:20:58;5.28;;;2.00;;
57389;SDS011;43217;52.694;6.214;2022-10-16T03:23:24;4.18;;;2.10;;
57389;SDS011;43217;52.694;6.214;2022-10-16T03:25:49;2.75;;;2.50;;
57389;SDS011;43217;52.694;6.214;2022-10-16T03:28:15;3.90;;;2.60;;
57389;SDS011;43217;52.694;6.214;2022-10-16T03:30:41;6.10;;;2.33;;
57389;SDS011;43217;52.694;6.214;2022-10-16T03:33:07;4.57;;;2.20;;
57389;SDS011;43217;52.694;6.214;2022-10-16T03:35:33;4.53;;;2.75;;
57389;SDS011;43217;52.694;6.214;2022-10-16T03:37:58;6.00;;;2.78;;
57389;SDS011;43217;52.694;6.214;2022-10-16T03:40:24;4.35;;;2.30;;
57389;SDS011;43217;52.694;6.214;2022-10-16T03:42:49;4.32;;;2.72;;
57389;SDS011;43217;52.694;6.214;2022-10-16T03:45:15;3.17;;;2.47;;
57389;SDS011;43217;52.694;6.214;2022-10-16T03:47:41;3.28;;;2.28;;
57389;SDS011;43217;52.694;6.214;2022-10-16T03:50:07;4.43;;;2.70;;
57389;SDS011;43217;52.694;6.214;2022-10-16T03:52:33;2.70;;;2.45;;
57389;SDS011;43217;52.694;6.214;2022-10-16T03:54:58;3.90;;;2.60;;
57389;SDS011;43217;52.694;6.214;2022-10-16T03:57:24;4.22;;;2.60;;
57389;SDS011;43217;52.694;6.214;2022-10-16T03:59:50;6.60;;;2.70;;
57389;SDS011;43217;52.694;6.214;2022-10-16T04:02:15;3.83;;;2.40;;
57389;SDS011;43217;52.694;6.214;2022-10-16T04:04:52;3.65;;;2.90;;
57389;SDS011;43217;52.694;6.214;2022-10-16T04:07:17;3.22;;;2.83;;
57389;SDS011;43217;52.694;6.214;2022-10-16T04:09:45;6.80;;;2.95;;
57389;SDS011;43217;52.694;6.214;2022-10-16T04:12:11;4.90;;;3.00;;
57389;SDS011;43217;52.694;6.214;2022-10-16T04:14:36;3.80;;;3.17;;
57389;SDS011;43217;52.694;6.214;2022-10-16T04:17:02;4.60;;;2.90;;
57389;SDS011;43217;52.694;6.214;2022-10-16T04:19:27;6.65;;;3.42;;
57389;SDS011;43217;52.694;6.214;2022-10-16T04:21:53;8.10;;;3.67;;
57389;SDS011;43217;52.694;6.214;2022-10-16T04:24:21;4.22;;;2.85;;
57389;SDS011;43217;52.694;6.214;2022-10-16T04:26:46;4.05;;;3.33;;
57389;SDS011;43217;52.694;6.214;2022-10-16T04:29:12;6.15;;;3.58;;
57389;SDS011;43217;52.694;6.214;2022-10-16T04:31:37;4.90;;;3.67;;
57389;SDS011;43217;52.694;6.214;2022-10-16T04:34:03;4.22;;;3.13;;
57389;SDS011;43217;52.694;6.214;2022-10-16T04:36:29;3.30;;;2.90;;
57389;SDS011;43217;52.694;6.214;2022-10-16T04:38:54;4.68;;;3.45;;
57389;SDS011;43217;52.694;6.214;2022-10-16T04:41:20;4.18;;;3.30;;
57389;SDS011;43217;52.694;6.214;2022-10-16T04:43:45;3.47;;;3.13;;
57389;SDS011;43217;52.694;6.214;2022-10-16T04:46:12;4.85;;;3.63;;
57389;SDS011;43217;52.694;6.214;2022-10-16T04:48:38;4.00;;;3.00;;
57389;SDS011;43217;52.694;6.214;2022-10-16T04:51:03;4.32;;;3.30;;
57389;SDS011;43217;52.694;6.214;2022-10-16T04:53:29;3.92;;;3.13;;
57389;SDS011;43217;52.694;6.214;2022-10-16T04:55:55;5.10;;;3.50;;
57389;SDS011;43217;52.694;6.214;2022-10-16T04:58:22;4.05;;;3.75;;
57389;SDS011;43217;52.694;6.214;2022-10-16T05:00:47;3.88;;;3.40;;
57389;SDS011;43217;52.694;6.214;2022-10-16T05:03:13;5.18;;;3.30;;
57389;SDS011;43217;52.694;6.214;2022-10-16T05:05:42;3.65;;;3.35;;
57389;SDS011;43217;52.694;6.214;2022-10-16T05:08:14;4.80;;;3.83;;
57389;SDS011;43217;52.694;6.214;2022-10-16T05:10:44;6.45;;;3.70;;
57389;SDS011;43217;52.694;6.214;2022-10-16T05:13:10;3.75;;;3.30;;
57389;SDS011;43217;52.694;6.214;2022-10-16T05:15:46;4.30;;;3.85;;
57389;SDS011;43217;52.694;6.214;2022-10-16T05:20:39;3.90;;;3.60;;
57389;SDS011;43217;52.694;6.214;2022-10-16T05:23:05;5.32;;;3.72;;
57389;SDS011;43217;52.694;6.214;2022-10-16T05:25:31;4.50;;;3.25;;
57389;SDS011;43217;52.694;6.214;2022-10-16T05:27:56;4.07;;;3.20;;
57389;SDS011;43217;52.694;6.214;2022-10-16T05:30:22;4.35;;;3.50;;
57389;SDS011;43217;52.694;6.214;2022-10-16T05:32:49;3.92;;;3.25;;
57389;SDS011;43217;52.694;6.214;2022-10-16T05:35:15;3.45;;;3.03;;
57389;SDS011;43217;52.694;6.214;2022-10-16T05:37:42;4.47;;;3.40;;
57389;SDS011;43217;52.694;6.214;2022-10-16T05:40:09;4.10;;;3.70;;
57389;SDS011;43217;52.694;6.214;2022-10-16T05:42:35;4.13;;;3.30;;
57389;SDS011;43217;52.694;6.214;2022-10-16T05:45:00;4.95;;;3.47;;
57389;SDS011;43217;52.694;6.214;2022-10-16T05:47:26;5.15;;;4.75;;
57389;SDS011;43217;52.694;6.214;2022-10-16T05:49:52;4.65;;;4.22;;
57389;SDS011;43217;52.694;6.214;2022-10-16T05:52:18;4.45;;;3.60;;
57389;SDS011;43217;52.694;6.214;2022-10-16T05:55:01;3.72;;;3.40;;
57389;SDS011;43217;52.694;6.214;2022-10-16T05:57:27;3.53;;;2.70;;
57389;SDS011;43217;52.694;6.214;2022-10-16T06:02:23;4.72;;;3.88;;
57389;SDS011;43217;52.694;6.214;2022-10-16T06:04:53;4.40;;;4.00;;
57389;SDS011;43217;52.694;6.214;2022-10-16T06:07:19;4.43;;;3.13;;
57389;SDS011;43217;52.694;6.214;2022-10-16T06:09:49;3.63;;;3.33;;
57389;SDS011;43217;52.694;6.214;2022-10-16T06:12:15;3.17;;;2.88;;
57389;SDS011;43217;52.694;6.214;2022-10-16T06:14:41;3.33;;;2.65;;
57389;SDS011;43217;52.694;6.214;2022-10-16T06:17:07;3.38;;;2.65;;
57389;SDS011;43217;52.694;6.214;2022-10-16T06:19:32;4.47;;;2.85;;
57389;SDS011;43217;52.694;6.214;2022-10-16T06:21:58;4.60;;;2.97;;
57389;SDS011;43217;52.694;6.214;2022-10-16T06:24:24;4.03;;;2.80;;
57389;SDS011;43217;52.694;6.214;2022-10-16T06:26:50;4.25;;;2.65;;
57389;SDS011;43217;52.694;6.214;2022-10-16T06:29:16;3.65;;;3.10;;
57389;SDS011;43217;52.694;6.214;2022-10-16T06:31:41;5.38;;;2.85;;
57389;SDS011;43217;52.694;6.214;2022-10-16T06:34:10;5.30;;;3.00;;
57389;SDS011;43217;52.694;6.214;2022-10-16T06:36:36;5.25;;;4.72;;
57389;SDS011;43217;52.694;6.214;2022-10-16T06:39:04;4.95;;;2.75;;
57389;SDS011;43217;52.694;6.214;2022-10-16T06:41:32;3.60;;;2.65;;
57389;SDS011;43217;52.694;6.214;2022-10-16T06:43:58;3.42;;;2.60;;
57389;SDS011;43217;52.694;6.214;2022-10-16T06:46:24;3.60;;;2.40;;
57389;SDS011;43217;52.694;6.214;2022-10-16T06:49:00;4.20;;;2.70;;
57389;SDS011;43217;52.694;6.214;2022-10-16T06:51:26;4.72;;;2.90;;
57389;SDS011;43217;52.694;6.214;2022-10-16T06:53:52;3.30;;;2.33;;
57389;SDS011;43217;52.694;6.214;2022-10-16T06:58:46;5.07;;;3.03;;
57389;SDS011;43217;52.694;6.214;2022-10-16T07:01:12;4.05;;;2.00;;
57389;SDS011;43217;52.694;6.214;2022-10-16T07:03:39;3.55;;;2.40;;
57389;SDS011;43217;52.694;6.214;2022-10-16T07:06:07;2.42;;;2.17;;
57389;SDS011;43217;52.694;6.214;2022-10-16T07:08:36;4.50;;;2.50;;
57389;SDS011;43217;52.694;6.214;2022-10-16T07:11:04;4.55;;;2.30;;
57389;SDS011;43217;52.694;6.214;2022-10-16T07:13:38;3.78;;;2.08;;
57389;SDS011;43217;52.694;6.214;2022-10-16T07:16:09;4.70;;;2.03;;
57389;SDS011;43217;52.694;6.214;2022-10-16T07:18:37;2.50;;;1.90;;
57389;SDS011;43217;52.694;6.214;2022-10-16T07:21:08;4.10;;;2.25;;
57389;SDS011;43217;52.694;6.214;2022-10-16T07:23:36;3.65;;;2.00;;
57389;SDS011;43217;52.694;6.214;2022-10-16T07:26:02;3.53;;;1.60;;
57389;SDS011;43217;52.694;6.214;2022-10-16T07:28:29;3.03;;;1.90;;
57389;SDS011;43217;52.694;6.214;2022-10-16T07:30:55;5.22;;;1.80;;
57389;SDS011;43217;52.694;6.214;2022-10-16T07:33:24;2.90;;;1.40;;
57389;SDS011;43217;52.694;6.214;2022-10-16T07:35:54;2.83;;;1.60;;
57389;SDS011;43217;52.694;6.214;2022-10-16T07:38:20;2.08;;;1.27;;
57389;SDS011;43217;52.694;6.214;2022-10-16T07:40:55;4.50;;;1.40;;
57389;SDS011;43217;52.694;6.214;2022-10-16T07:43:21;2.20;;;1.10;;
57389;SDS011;43217;52.694;6.214;2022-10-16T07:45:51;1.23;;;0.95;;
57389;SDS011;43217;52.694;6.214;2022-10-16T07:48:18;2.60;;;0.75;;
57389;SDS011;43217;52.694;6.214;2022-10-16T07:50:45;1.67;;;0.80;;
57389;SDS011;43217;52.694;6.214;2022-10-16T07:53:11;3.10;;;1.33;;
57389;SDS011;43217;52.694;6.214;2022-10-16T07:55:38;2.08;;;1.10;;
57389;SDS011;43217;52.694;6.214;2022-10-16T07:58:04;5.03;;;1.27;;
57389;SDS011;43217;52.694;6.214;2022-10-16T08:00:30;3.15;;;1.20;;
57389;SDS011;43217;52.694;6.214;2022-10-16T08:02:57;2.88;;;1.45;;
57389;SDS011;43217;52.694;6.214;2022-10-16T08:05:30;3.13;;;1.60;;
57389;SDS011;43217;52.694;6.214;2022-10-16T08:07:57;3.65;;;1.75;;
57389;SDS011;43217;52.694;6.214;2022-10-16T08:10:24;3.10;;;1.85;;
57389;SDS011;43217;52.694;6.214;2022-10-16T08:12:51;2.75;;;1.90;;
57389;SDS011;43217;52.694;6.214;2022-10-16T08:15:18;4.50;;;2.00;;
57389;SDS011;43217;52.694;6.214;2022-10-16T08:17:44;2.60;;;1.80;;
57389;SDS011;43217;52.694;6.214;2022-10-16T08:20:21;5.07;;;2.45;;
57389;SDS011;43217;52.694;6.214;2022-10-16T08:22:47;9.63;;;2.92;;
57389;SDS011;43217;52.694;6.214;2022-10-16T08:25:25;4.65;;;2.67;;
57389;SDS011;43217;52.694;6.214;2022-10-16T08:27:51;6.18;;;2.78;;
57389;SDS011;43217;52.694;6.214;2022-10-16T08:30:17;4.60;;;2.50;;
57389;SDS011;43217;52.694;6.214;2022-10-16T08:35:12;3.20;;;2.38;;
57389;SDS011;43217;52.694;6.214;2022-10-16T08:37:39;4.90;;;2.75;;
57389;SDS011;43217;52.694;6.214;2022-10-16T08:40:06;7.90;;;2.88;;
57389;SDS011;43217;52.694;6.214;2022-10-16T08:46:03;4.97;;;2.40;;
57389;SDS011;43217;52.694;6.214;2022-10-16T08:48:43;5.03;;;2.70;;
57389;SDS011;43217;52.694;6.214;2022-10-16T08:51:29;6.18;;;2.53;;
57389;SDS011;43217;52.694;6.214;2022-10-16T08:53:57;6.43;;;3.13;;
57389;SDS011;43217;52.694;6.214;2022-10-16T08:56:26;4.00;;;2.60;;
57389;SDS011;43217;52.694;6.214;2022-10-16T08:58:52;3.88;;;2.10;;
57389;SDS011;43217;52.694;6.214;2022-10-16T09:01:20;5.27;;;2.43;;
57389;SDS011;43217;52.694;6.214;2022-10-16T09:12:04;5.15;;;2.30;;
57389;SDS011;43217;52.694;6.214;2022-10-16T09:19:38;6.68;;;2.20;;
57389;SDS011;43217;52.694;6.214;2022-10-16T09:22:10;10.02;;;2.05;;
57389;SDS011;43217;52.694;6.214;2022-10-16T09:24:41;4.10;;;2.03;;
57389;SDS011;43217;52.694;6.214;2022-10-16T09:27:10;4.95;;;2.08;;
57389;SDS011;43217;52.694;6.214;2022-10-16T09:29:36;3.28;;;1.70;;
57389;SDS011;43217;52.694;6.214;2022-10-16T09:32:07;4.90;;;2.00;;
57389;SDS011;43217;52.694;6.214;2022-10-16T09:34:39;5.85;;;2.08;;
57389;SDS011;43217;52.694;6.214;2022-10-16T09:37:17;5.53;;;2.10;;
57389;SDS011;43217;52.694;6.214;2022-10-16T09:39:51;5.25;;;1.70;;
57389;SDS011;43217;52.694;6.214;2022-10-16T09:44:52;5.70;;;1.65;;
57389;SDS011;43217;52.694;6.214;2022-10-16T09:47:25;8.65;;;2.20;;
57389;SDS011;43217;52.694;6.214;2022-10-16T09:49:54;6.68;;;2.00;;
57389;SDS011;43217;52.694;6.214;2022-10-16T09:52:22;9.75;;;1.98;;
57389;SDS011;43217;52.694;6.214;2022-10-16T09:54:59;6.78;;;2.20;;
57389;SDS011;43217;52.694;6.214;2022-10-16T09:57:37;4.97;;;1.70;;
57389;SDS011;43217;52.694;6.214;2022-10-16T10:00:18;6.85;;;2.00;;
57389;SDS011;43217;52.694;6.214;2022-10-16T10:02:44;7.57;;;1.98;;
57389;SDS011;43217;52.694;6.214;2022-10-16T10:05:28;7.70;;;1.90;;
57389;SDS011;43217;52.694;6.214;2022-10-16T10:07:58;7.53;;;2.78;;
57389;SDS011;43217;52.694;6.214;2022-10-16T10:10:32;9.63;;;2.40;;
57389;SDS011;43217;52.694;6.214;2022-10-16T10:13:19;5.97;;;1.85;;
57389;SDS011;43217;52.694;6.214;2022-10-16T10:15:47;7.82;;;2.38;;
57389;SDS011;43217;52.694;6.214;2022-10-16T10:18:16;5.00;;;1.80;;
57389;SDS011;43217;52.694;6.214;2022-10-16T10:20:45;9.32;;;2.20;;
57389;SDS011;43217;52.694;6.214;2022-10-16T10:23:20;7.25;;;2.30;;
57389;SDS011;43217;52.694;6.214;2022-10-16T10:37:20;9.35;;;2.00;;
57389;SDS011;43217;52.694;6.214;2022-10-16T10:43:19;5.32;;;2.05;;
57389;SDS011;43217;52.694;6.214;2022-10-16T10:46:04;6.05;;;1.85;;
57389;SDS011;43217;52.694;6.214;2022-10-16T10:48:41;9.10;;;2.30;;
57389;SDS011;43217;52.694;6.214;2022-10-16T10:51:17;8.05;;;2.10;;
57389;SDS011;43217;52.694;6.214;2022-10-16T11:07:27;7.90;;;1.95;;
57389;SDS011;43217;52.694;6.214;2022-10-16T11:10:42;9.80;;;2.47;;
57389;SDS011;43217;52.694;6.214;2022-10-16T11:12:58;9.60;;;2.33;;
57389;SDS011;43217;52.694;6.214;2022-10-16T11:15:35;8.27;;;2.00;;
57389;SDS011;43217;52.694;6.214;2022-10-16T11:18:06;7.63;;;2.13;;
57389;SDS011;43217;52.694;6.214;2022-10-16T11:20:53;9.25;;;1.83;;
57389;SDS011;43217;52.694;6.214;2022-10-16T11:23:39;8.93;;;2.28;;
57389;SDS011;43217;52.694;6.214;2022-10-16T11:26:15;9.43;;;1.90;;
57389;SDS011;43217;52.694;6.214;2022-10-16T11:28:49;7.60;;;2.10;;
57389;SDS011;43217;52.694;6.214;2022-10-16T11:31:19;6.47;;;1.83;;
57389;SDS011;43217;52.694;6.214;2022-10-16T11:33:59;6.78;;;2.13;;
57389;SDS011;43217;52.694;6.214;2022-10-16T11:36:33;6.80;;;1.63;;
57389;SDS011;43217;52.694;6.214;2022-10-16T11:39:30;7.75;;;2.00;;
57389;SDS011;43217;52.694;6.214;2022-10-16T11:42:09;8.07;;;1.92;;
57389;SDS011;43217;52.694;6.214;2022-10-16T11:44:46;5.32;;;1.60;;
57389;SDS011;43217;52.694;6.214;2022-10-16T11:47:54;6.75;;;2.00;;
57389;SDS011;43217;52.694;6.214;2022-10-16T11:50:36;6.30;;;1.90;;
57389;SDS011;43217;52.694;6.214;2022-10-16T11:53:15;9.68;;;2.20;;
57389;SDS011;43217;52.694;6.214;2022-10-16T11:55:45;6.68;;;1.90;;
57389;SDS011;43217;52.694;6.214;2022-10-16T12:01:05;6.30;;;1.75;;
57389;SDS011;43217;52.694;6.214;2022-10-16T12:03:43;7.90;;;1.88;;
57389;SDS011;43217;52.694;6.214;2022-10-16T12:06:34;9.65;;;2.05;;
57389;SDS011;43217;52.694;6.214;2022-10-16T12:09:05;8.38;;;1.73;;
57389;SDS011;43217;52.694;6.214;2022-10-16T12:11:35;7.78;;;2.08;;
57389;SDS011;43217;52.694;6.214;2022-10-16T12:16:38;6.82;;;2.20;;
57389;SDS011;43217;52.694;6.214;2022-10-16T12:19:20;8.88;;;2.47;;
57389;SDS011;43217;52.694;6.214;2022-10-16T12:21:47;7.50;;;1.77;;
57389;SDS011;43217;52.694;6.214;2022-10-16T12:27:02;6.60;;;1.88;;
57389;SDS011;43217;52.694;6.214;2022-10-16T12:34:55;7.00;;;2.15;;
57389;SDS011;43217;52.694;6.214;2022-10-16T12:37:23;8.27;;;1.90;;
57389;SDS011;43217;52.694;6.214;2022-10-16T12:39:51;9.40;;;2.63;;
57389;SDS011;43217;52.694;6.214;2022-10-16T12:42:36;7.88;;;2.17;;
57389;SDS011;43217;52.694;6.214;2022-10-16T12:45:12;9.30;;;1.92;;
57389;SDS011;43217;52.694;6.214;2022-10-16T12:47:51;7.05;;;2.00;;
57389;SDS011;43217;52.694;6.214;2022-10-16T12:50:38;6.80;;;1.80;;
57389;SDS011;43217;52.694;6.214;2022-10-16T12:53:19;10.05;;;2.45;;
57389;SDS011;43217;52.694;6.214;2022-10-16T12:58:53;6.57;;;1.88;;
57389;SDS011;43217;52.694;6.214;2022-10-16T13:19:38;8.05;;;1.80;;
57389;SDS011;43217;52.694;6.214;2022-10-16T13:22:22;7.13;;;1.73;;
57389;SDS011;43217;52.694;6.214;2022-10-16T13:25:13;5.70;;;1.80;;
57389;SDS011;43217;52.694;6.214;2022-10-16T13:30:52;4.60;;;1.58;;
57389;SDS011;43217;52.694;6.214;2022-10-16T13:35:58;7.15;;;1.75;;
57389;SDS011;43217;52.694;6.214;2022-10-16T13:38:25;9.27;;;1.77;;
57389;SDS011;43217;52.694;6.214;2022-10-16T13:40:53;5.85;;;1.88;;
57389;SDS011;43217;52.694;6.214;2022-10-16T13:43:22;9.30;;;1.70;;
57389;SDS011;43217;52.694;6.214;2022-10-16T13:46:02;5.93;;;1.35;;
57389;SDS011;43217;52.694;6.214;2022-10-16T13:48:32;8.10;;;1.98;;
57389;SDS011;43217;52.694;6.214;2022-10-16T13:51:03;7.63;;;2.13;;
57389;SDS011;43217;52.694;6.214;2022-10-16T13:53:38;7.40;;;2.70;;
57389;SDS011;43217;52.694;6.214;2022-10-16T13:56:06;8.32;;;2.83;;
57389;SDS011;43217;52.694;6.214;2022-10-16T13:58:35;6.32;;;2.45;;
57389;SDS011;43217;52.694;6.214;2022-10-16T14:01:02;6.13;;;2.67;;
57389;SDS011;43217;52.694;6.214;2022-10-16T14:03:30;6.13;;;2.10;;
57389;SDS011;43217;52.694;6.214;2022-10-16T14:10:56;5.68;;;2.10;;
57389;SDS011;43217;52.694;6.214;2022-10-16T14:13:29;5.00;;;1.55;;
57389;SDS011;43217;52.694;6.214;2022-10-16T14:15:59;3.92;;;1.60;;
57389;SDS011;43217;52.694;6.214;2022-10-16T14:18:31;7.43;;;2.15;;
57389;SDS011;43217;52.694;6.214;2022-10-16T14:21:02;6.25;;;1.70;;
57389;SDS011;43217;52.694;6.214;2022-10-16T14:23:39;7.97;;;2.53;;
57389;SDS011;43217;52.694;6.214;2022-10-16T14:28:36;5.70;;;1.70;;
57389;SDS011;43217;52.694;6.214;2022-10-16T14:34:02;6.20;;;1.83;;
57389;SDS011;43217;52.694;6.214;2022-10-16T14:36:28;4.72;;;1.70;;
57389;SDS011;43217;52.694;6.214;2022-10-16T14:39:03;8.43;;;1.88;;
57389;SDS011;43217;52.694;6.214;2022-10-16T14:41:31;7.20;;;1.92;;
57389;SDS011;43217;52.694;6.214;2022-10-16T14:44:09;7.93;;;1.90;;
57389;SDS011;43217;52.694;6.214;2022-10-16T14:46:37;6.75;;;1.77;;
57389;SDS011;43217;52.694;6.214;2022-10-16T14:51:39;7.78;;;2.10;;
57389;SDS011;43217;52.694;6.214;2022-10-16T14:56:48;4.43;;;1.73;;
57389;SDS011;43217;52.694;6.214;2022-10-16T15:01:52;9.93;;;4.72;;
57389;SDS011;43217;52.694;6.214;2022-10-16T15:04:18;8.32;;;4.00;;
57389;SDS011;43217;52.694;6.214;2022-10-16T15:06:44;7.45;;;2.95;;
57389;SDS011;43217;52.694;6.214;2022-10-16T15:09:10;6.32;;;2.22;;
57389;SDS011;43217;52.694;6.214;2022-10-16T15:11:35;5.93;;;2.47;;
57389;SDS011;43217;52.694;6.214;2022-10-16T15:14:02;8.18;;;2.60;;
57389;SDS011;43217;52.694;6.214;2022-10-16T15:16:28;5.93;;;2.50;;
57389;SDS011;43217;52.694;6.214;2022-10-16T15:18:55;8.50;;;3.58;;
57389;SDS011;43217;52.694;6.214;2022-10-16T15:21:24;6.45;;;3.42;;
57389;SDS011;43217;52.694;6.214;2022-10-16T15:23:52;5.63;;;2.85;;
57389;SDS011;43217;52.694;6.214;2022-10-16T15:26:18;7.60;;;2.90;;
57389;SDS011;43217;52.694;6.214;2022-10-16T15:28:43;8.55;;;2.38;;
57389;SDS011;43217;52.694;6.214;2022-10-16T15:31:11;6.63;;;2.83;;
57389;SDS011;43217;52.694;6.214;2022-10-16T15:33:37;9.25;;;3.58;;
57389;SDS011;43217;52.694;6.214;2022-10-16T15:36:03;6.82;;;2.78;;
57389;SDS011;43217;52.694;6.214;2022-10-16T15:38:29;7.40;;;3.58;;
57389;SDS011;43217;52.694;6.214;2022-10-16T15:40:55;7.75;;;3.30;;
57389;SDS011;43217;52.694;6.214;2022-10-16T15:43:23;7.03;;;3.28;;
57389;SDS011;43217;52.694;6.214;2022-10-16T15:45:58;7.45;;;3.30;;
57389;SDS011;43217;52.694;6.214;2022-10-16T15:48:33;8.18;;;3.33;;
57389;SDS011;43217;52.694;6.214;2022-10-16T15:50:59;7.93;;;2.92;;
57389;SDS011;43217;52.694;6.214;2022-10-16T15:53:25;8.40;;;4.43;;
57389;SDS011;43217;52.694;6.214;2022-10-16T15:55:51;10.90;;;4.43;;
57389;SDS011;43217;52.694;6.214;2022-10-16T15:58:16;5.63;;;3.10;;
57389;SDS011;43217;52.694;6.214;2022-10-16T16:00:42;7.35;;;2.50;;
57389;SDS011;43217;52.694;6.214;2022-10-16T16:03:08;6.15;;;1.95;;
57389;SDS011;43217;52.694;6.214;2022-10-16T16:05:37;7.20;;;2.40;;
57389;SDS011;43217;52.694;6.214;2022-10-16T16:08:04;8.90;;;2.38;;
57389;SDS011;43217;52.694;6.214;2022-10-16T16:10:29;6.97;;;2.40;;
57389;SDS011;43217;52.694;6.214;2022-10-16T16:12:55;7.25;;;3.13;;
57389;SDS011;43217;52.694;6.214;2022-10-16T16:15:22;7.50;;;3.20;;
57389;SDS011;43217;52.694;6.214;2022-10-16T16:17:48;6.93;;;3.17;;
57389;SDS011;43217;52.694;6.214;2022-10-16T16:20:14;10.38;;;3.60;;
57389;SDS011;43217;52.694;6.214;2022-10-16T16:22:40;7.28;;;3.58;;
57389;SDS011;43217;52.694;6.214;2022-10-16T16:25:06;7.40;;;3.85;;
57389;SDS011;43217;52.694;6.214;2022-10-16T16:27:32;9.15;;;3.50;;
57389;SDS011;43217;52.694;6.214;2022-10-16T16:30:03;11.55;;;8.15;;
57389;SDS011;43217;52.694;6.214;2022-10-16T16:32:30;24.83;;;22.02;;
57389;SDS011;43217;52.694;6.214;2022-10-16T16:34:56;24.95;;;20.70;;
57389;SDS011;43217;52.694;6.214;2022-10-16T16:37:22;15.03;;;11.33;;
57389;SDS011;43217;52.694;6.214;2022-10-16T16:39:48;14.05;;;11.40;;
57389;SDS011;43217;52.694;6.214;2022-10-16T16:42:13;18.00;;;12.70;;
57389;SDS011;43217;52.694;6.214;2022-10-16T16:44:39;14.15;;;10.55;;
57389;SDS011;43217;52.694;6.214;2022-10-16T16:49:49;17.33;;;14.48;;
57389;SDS011;43217;52.694;6.214;2022-10-16T16:52:16;13.57;;;11.90;;
57389;SDS011;43217;52.694;6.214;2022-10-16T16:54:42;15.57;;;12.23;;
57389;SDS011;43217;52.694;6.214;2022-10-16T16:57:09;18.98;;;14.70;;
57389;SDS011;43217;52.694;6.214;2022-10-16T16:59:35;23.77;;;19.98;;
57389;SDS011;43217;52.694;6.214;2022-10-16T17:02:01;22.35;;;15.60;;
57389;SDS011;43217;52.694;6.214;2022-10-16T17:04:43;17.92;;;12.48;;
57389;SDS011;43217;52.694;6.214;2022-10-16T17:07:08;20.25;;;16.00;;
57389;SDS011;43217;52.694;6.214;2022-10-16T17:09:37;20.30;;;13.70;;
57389;SDS011;43217;52.694;6.214;2022-10-16T17:12:05;23.75;;;16.85;;
57389;SDS011;43217;52.694;6.214;2022-10-16T17:14:31;20.35;;;15.77;;
57389;SDS011;43217;52.694;6.214;2022-10-16T17:16:57;16.92;;;13.27;;
57389;SDS011;43217;52.694;6.214;2022-10-16T17:19:22;23.58;;;18.73;;
57389;SDS011;43217;52.694;6.214;2022-10-16T17:21:48;20.73;;;15.63;;
57389;SDS011;43217;52.694;6.214;2022-10-16T17:24:14;19.95;;;15.52;;
57389;SDS011;43217;52.694;6.214;2022-10-16T17:26:40;21.33;;;15.05;;
57389;SDS011;43217;52.694;6.214;2022-10-16T17:29:09;19.85;;;15.15;;